Terminal Aerodrome Forecast
Issued by NWS Wilmington, OH

Current Version | Previous Version | Text Only | Print | Product List | Glossary On
Versions: 1 2 3 4 5 6 7 8 9 10 11 12 13 14 15 16 17 18 19 20 21
000
FTUS41 KILN 191455 AAA
TAFCVG
TAF AMD
KCVG 191455Z 1915/2018 18005KT P6SM VCTS OVC090CB
      TEMPO 1915/1917 5SM -TSRA BR OVC050CB
     FM191700 19005KT P6SM VCTS OVC050CB
     FM191800 20005KT P6SM VCSH OVC050
     FM200200 17004KT P6SM BKN110
     FM200700 VRB03KT 5SM BR BKN090
     FM201300 22005KT P6SM BKN028=

USA.gov is the U.S. government's official web portal to all federal, state and local government web resources and services.